Date,TemperatureHighF,TemperatureAvgF,TemperatureLowF,DewpointHighF,DewpointAvgF,DewpointLowF,HumidityHigh,HumidityAvg,HumidityLow,PressureMaxIn,PressureMinIn,WindSpeedMaxMPH,WindSpeedAvgMPH,GustSpeedMaxMPH,PrecipitationSumIn
2013-1-1,39,32,27,36,31,27,98,96,87,30.49,30.35,3,0,4,0.01
2013-1-2,48,36,28,30,27,20,98,73,45,30.35,30.18,8,1,14,0.00
2013-1-3,48,37,27,35,25,20,96,63,41,30.18,30.08,3,1,9,0.12
2013-1-4,49,41,36,45,40,35,98,95,85,30.30,30.15,3,0,7,0.01
2013-1-5,44,42,39,38,37,34,97,83,73,30.19,30.09,4,0,10,0.09
2013-1-6,45,40,39,41,39,38,96,94,83,30.16,29.97,5,0,10,0.28
2013-1-7,49,45,40,48,44,39,98,97,96,30.14,29.80,5,1,13,0.73
2013-1-8,50,45,40,49,44,40,98,97,95,30.14,29.71,5,1,13,0.53
2013-1-9,50,39,33,49,38,33,98,97,94,29.93,29.65,4,0,13,1.18
2013-1-10,36,33,28,36,33,28,99,98,97,30.10,29.93,1,0,3,0.13
2013-1-11,34,30,27,33,29,26,98,97,94,30.32,30.09,2,0,3,0.01
2013-1-12,34,27,23,31,26,22,98,95,84,30.43,30.31,3,0,6,0.01
2013-1-13,34,23,19,30,22,18,97,94,80,30.48,30.43,2,0,4,0.01
2013-1-14,33,32,30,33,31,29,98,97,95,30.55,30.46,1,0,3,0.02
2013-1-15,42,34,28,38,32,27,99,94,76,30.69,30.56,3,0,4,0.01
2013-1-16,41,30,25,37,29,24,98,95,84,30.67,30.51,1,0,3,0.00
2013-1-17,40,29,27,38,29,26,99,97,91,30.51,30.29,2,0,3,0.01
2013-1-18,32,29,24,32,29,23,98,98,96,30.34,30.25,3,0,4,0.00
2013-1-19,32,30,28,32,29,27,98,98,97,30.38,30.33,1,0,4,0.01
2013-1-20,34,30,28,34,29,27,99,98,97,30.39,30.26,1,0,3,0.01
2013-1-21,32,29,27,32,29,26,99,98,97,30.26,30.12,2,0,4,0.00
2013-1-22,36,29,23,36,29,22,99,98,96,30.14,29.89,2,0,4,0.00
2013-1-23,41,38,34,40,37,33,99,97,88,30.11,29.82,3,0,8,0.38
2013-1-24,44,40,38,42,39,38,99,97,85,30.19,30.04,4,0,8,0.18
2013-1-25,51,44,38,46,43,38,99,94,81,30.04,29.91,5,0,7,0.04
2013-1-26,41,39,38,41,38,37,98,97,94,30.01,29.86,2,0,8,0.89
2013-1-27,41,39,38,41,39,37,99,98,98,30.04,29.97,2,0,4,0.44
2013-1-28,40,38,36,39,38,36,99,98,98,30.07,29.98,2,0,5,1.01
2013-1-29,44,42,40,44,42,39,99,99,99,30.32,30.07,2,0,4,1.36
2013-1-30,49,45,42,49,45,42,99,99,98,30.36,30.32,3,0,6,0.25
2013-1-31,47,46,45,47,45,45,99,98,96,30.37,30.29,5,0,13,0.12
2013-2-1,50,44,35,47,43,35,99,96,86,30.39,30.31,5,0,6,0.01
2013-2-2,41,36,32,40,36,31,99,99,97,30.38,30.25,2,0,4,0.01
2013-2-3,47,40,37,46,39,36,99,98,91,30.29,30.19,2,0,5,0.09
2013-2-4,50,45,43,45,43,42,98,92,80,30.19,29.86,3,0,8,0.00
2013-2-5,51,46,44,45,43,41,97,91,75,29.91,29.82,6,1,13,0.12
2013-2-6,48,45,43,42,41,39,93,85,73,30.02,29.77,7,1,13,0.07
2013-2-7,48,42,31,42,38,30,96,86,65,30.18,29.79,6,1,10,0.18
2013-2-8,43,35,28,40,34,28,98,93,82,30.30,30.18,1,0,3,0.00
2013-2-9,42,40,38,41,39,37,98,97,95,30.33,30.25,2,0,2,0.10
2013-2-10,46,37,32,42,36,31,99,96,78,30.36,30.31,3,0,5,0.01
2013-2-11,44,40,38,43,40,37,98,97,93,30.35,30.32,2,0,5,0.05
2013-2-12,48,44,40,46,43,39,98,95,89,30.39,30.26,4,0,7,0.02
2013-2-13,48,44,42,46,43,41,98,94,86,30.48,30.29,3,0,9,0.10
2013-2-14,49,43,41,45,42,40,98,95,85,30.55,30.48,3,0,7,0.07
2013-2-15,54,43,36,46,41,35,99,92,71,30.53,30.16,5,0,7,0.01
2013-2-16,46,42,35,45,41,34,99,96,85,30.18,30.11,4,0,12,0.89
2013-2-17,44,40,35,41,38,34,98,96,87,30.23,30.10,2,0,4,0.04
2013-2-18,46,38,32,40,36,31,98,90,77,30.10,29.75,3,0,8,0.00
2013-2-19,49,41,32,39,35,31,96,82,59,29.99,29.73,7,1,11,0.00
2013-2-20,45,38,31,40,36,30,98,93,79,30.02,29.98,2,0,8,0.02
2013-2-21,42,40,36,40,39,36,97,95,90,30.05,29.99,2,0,7,0.07
2013-2-22,46,40,35,42,39,34,98,93,86,30.02,29.66,10,2,16,0.36
2013-2-23,46,40,36,41,38,35,98,91,72,30.36,29.88,5,1,10,0.25
2013-2-24,47,43,38,40,38,36,93,84,74,30.36,29.94,9,2,14,0.01
2013-2-25,50,43,39,41,37,32,96,81,54,30.28,29.87,8,1,17,0.09
2013-2-26,48,41,33,39,35,31,96,78,61,30.34,30.19,5,1,9,0.01
2013-2-27,52,44,40,43,40,37,97,86,60,30.29,30.19,5,0,6,0.30
2013-2-28,51,44,40,50,44,39,98,97,95,30.29,30.17,8,1,10,0.38
2013-3-1,56,54,51,51,50,48,97,88,80,30.32,30.25,10,2,17,0.01
2013-3-2,56,48,37,49,44,36,96,86,74,30.25,30.04,9,2,15,0.40
2013-3-3,48,40,31,41,37,30,98,89,63,30.30,30.17,5,0,9,0.06
2013-3-4,54,40,28,37,30,26,98,72,41,30.29,29.93,8,1,16,0.01
2013-3-5,55,46,41,40,33,26,88,60,42,29.92,29.71,6,1,14,0.00
2013-3-6,43,40,37,42,38,35,97,94,88,29.88,29.57,3,0,7,0.47
2013-3-7,48,41,34,46,40,33,97,96,90,30.08,29.88,2,0,7,0.24
2013-3-8,50,38,29,44,36,28,99,91,72,30.23,30.07,5,1,10,0.00
2013-3-9,56,40,28,42,35,28,98,85,56,30.48,30.23,5,0,8,0.01
2013-3-10,49,39,34,41,36,33,97,91,70,30.49,30.41,3,0,6,0.00
2013-3-11,54,45,36,45,40,35,97,86,59,30.43,30.15,2,0,5,0.02
2013-3-12,54,51,46,50,48,44,96,90,78,30.14,30.03,5,1,12,0.44
2013-3-13,53,51,50,51,50,48,98,94,88,30.18,30.08,5,1,11,0.28
2013-3-14,53,50,48,51,48,45,97,92,84,30.13,30.01,4,1,10,0.02
2013-3-15,59,51,48,51,48,46,95,90,72,30.19,30.12,5,0,7,0.00
2013-3-16,51,44,34,47,42,34,97,91,78,30.11,29.87,7,1,12,0.33
2013-3-17,47,40,36,40,37,35,98,90,66,30.18,29.95,4,0,7,0.16
2013-3-18,50,42,36,41,36,31,97,79,51,30.24,30.09,9,2,14,0.07
2013-3-19,56,42,31,41,34,29,97,79,36,30.23,29.60,11,1,16,0.23
2013-3-20,52,44,34,48,41,34,97,90,71,30.00,29.38,10,2,22,1.39
2013-3-21,43,38,34,40,36,32,98,93,75,30.19,30.00,4,0,11,0.25
2013-3-22,45,37,30,38,33,27,98,87,51,30.36,30.19,5,1,9,0.43
2013-3-23,51,38,30,35,30,27,97,77,46,30.39,30.29,5,1,8,0.00
2013-3-24,59,36,29,37,31,28,96,84,34,30.30,30.11,3,0,7,0.00
2013-3-25,60,44,30,37,32,28,95,67,35,30.13,29.93,5,1,9,0.00
2013-3-26,60,48,37,44,38,35,91,72,45,30.00,29.95,7,1,10,0.00
2013-3-27,57,48,40,47,42,39,95,81,62,29.97,29.92,3,0,5,0.00
2013-3-28,63,50,39,50,44,38,97,81,55,30.14,29.98,5,1,8,0.00
2013-3-29,62,46,38,49,42,37,98,88,53,30.23,30.14,7,0,10,0.00
2013-3-30,65,50,36,50,44,35,97,79,58,30.25,30.07,8,1,9,0.00
2013-3-31,67,51,36,49,43,35,97,78,49,30.07,29.89,6,1,10,0.00
2013-4-1,63,51,39,51,46,38,98,83,64,30.13,29.95,4,0,7,0.00
2013-4-2,55,52,48,49,47,46,94,85,77,30.18,30.14,3,0,6,0.00
2013-4-3,63,52,45,49,46,43,96,81,56,30.17,29.94,5,1,8,0.00
2013-4-4,56,51,47,54,49,45,96,91,84,29.94,29.62,4,0,12,0.27
2013-4-5,58,52,48,51,49,46,97,89,73,29.84,29.71,7,2,13,0.54
2013-4-6,53,48,46,47,44,41,94,86,78,29.90,29.68,5,1,11,0.19
2013-4-7,47,43,40,44,42,38,97,94,85,29.86,29.49,5,0,8,1.20
2013-4-8,55,46,42,48,43,41,97,91,69,30.25,29.88,2,0,5,0.18
2013-4-9,55,48,42,46,44,41,97,85,67,30.34,30.17,3,0,8,0.00
2013-4-10,54,51,47,50,45,41,95,82,68,30.23,29.89,9,2,17,0.12
2013-4-11,53,46,39,44,41,37,96,81,58,30.28,30.18,7,1,11,0.10
2013-4-12,48,41,36,42,39,35,97,92,77,30.18,29.67,5,1,13,0.31
2013-4-13,47,41,36,44,40,34,96,93,87,29.98,29.74,7,1,10,0.24
2013-4-14,52,43,38,42,39,35,97,86,53,30.00,29.90,7,1,9,0.24
2013-4-15,53,44,37,43,40,36,96,86,65,30.16,29.93,12,2,14,0.10
2013-4-16,56,44,31,43,37,30,98,79,45,30.39,30.17,8,1,9,0.01
2013-4-17,60,46,34,45,38,33,97,77,43,30.45,30.39,6,1,11,0.01
2013-4-18,50,45,43,47,42,40,96,88,76,30.44,30.20,4,0,7,0.26
2013-4-19,52,50,48,51,49,47,98,96,93,30.20,30.05,6,1,10,0.56
2013-4-20,56,49,46,50,47,45,98,94,79,30.27,30.18,2,0,6,0.29
2013-4-21,54,46,40,47,44,38,98,93,66,30.35,30.22,7,0,9,0.45
2013-4-22,59,46,31,43,36,30,98,73,39,30.52,30.36,8,2,14,0.00
2013-4-23,61,47,32,41,36,31,97,70,38,30.42,30.23,11,1,13,0.00
2013-4-24,67,52,35,45,38,34,96,65,31,30.31,30.06,8,1,11,0.00
2013-4-25,70,48,38,48,40,36,95,77,36,30.12,30.03,7,1,9,0.00
2013-4-26,67,54,42,53,47,40,97,77,54,30.23,30.12,6,1,9,0.00
2013-4-27,54,52,49,49,46,40,96,80,59,30.21,30.14,7,1,11,0.17
2013-4-28,58,50,46,50,46,43,96,87,71,30.20,29.93,3,0,10,0.20
2013-4-29,54,48,43,46,36,28,94,66,36,30.14,29.91,15,4,20,0.05
2013-4-30,55,45,37,41,35,22,95,72,30,30.44,30.14,6,1,11,0.09
2013-5-1,62,48,30,41,35,29,96,66,40,30.57,30.44,8,1,11,0.00
2013-5-2,64,52,38,47,41,37,95,69,46,30.54,30.36,9,2,14,0.00
2013-5-3,68,54,39,51,45,37,96,71,43,30.38,30.22,11,2,12,0.00
2013-5-4,76,58,41,53,46,40,97,68,29,30.23,30.00,8,2,13,0.00
2013-5-5,81,63,44,55,49,42,95,64,37,30.00,29.77,7,1,12,0.00
2013-5-6,81,65,47,56,50,45,94,63,30,29.84,29.74,8,1,12,0.00
2013-5-7,72,58,48,57,52,46,96,79,56,29.98,29.80,4,1,10,0.00
2013-5-8,66,56,48,56,51,47,96,86,64,30.13,29.98,3,0,5,0.00
2013-5-9,67,54,46,58,50,45,98,88,61,30.21,30.11,4,1,10,0.00
2013-5-10,73,59,45,58,51,44,97,77,43,30.19,30.10,6,1,9,0.00
2013-5-11,83,64,51,58,53,49,95,71,40,30.16,29.98,7,1,11,0.00
2013-5-12,70,61,57,60,56,52,96,87,62,30.07,29.99,4,1,8,0.14
2013-5-13,62,56,47,59,52,42,96,85,68,30.18,29.91,4,1,17,0.18
2013-5-14,64,54,46,47,44,39,90,70,45,30.21,30.11,5,1,8,0.00
2013-5-15,66,53,42,50,46,41,95,79,46,30.11,30.00,4,0,9,0.07
2013-5-16,66,55,51,56,52,50,96,90,64,30.01,29.86,11,1,12,0.01
2013-5-17,60,56,52,53,51,49,95,86,74,30.03,29.93,4,0,7,0.07
2013-5-18,61,56,50,51,49,45,91,78,58,30.26,30.04,4,0,7,0.00
2013-5-19,63,54,50,53,50,47,94,86,62,30.39,30.26,7,1,9,0.03
2013-5-20,67,54,43,55,48,42,96,82,59,30.34,29.90,9,1,12,0.00
2013-5-21,54,49,46,50,47,45,96,92,83,29.89,29.77,5,0,8,0.61
2013-5-22,52,47,44,49,45,43,97,93,85,29.93,29.84,3,0,7,0.16
2013-5-23,59,47,43,50,45,43,98,94,67,30.00,29.91,5,0,7,0.03
2013-5-24,62,52,42,50,46,42,98,82,58,30.03,29.96,3,0,7,0.00
2013-5-25,65,56,49,50,48,46,95,77,49,30.03,29.96,4,0,6,0.02
2013-5-26,64,55,49,57,52,47,96,88,73,29.98,29.93,3,0,5,0.12
2013-5-27,61,56,51,56,53,49,96,90,78,29.95,29.71,3,0,8,0.09
2013-5-28,64,56,52,54,51,49,95,84,65,29.87,29.76,4,1,12,0.02
2013-5-29,54,52,50,51,50,49,97,93,86,29.95,29.66,4,0,8,0.45
2013-5-30,62,54,48,51,49,46,97,83,62,30.23,29.96,5,0,8,0.01
2013-5-31,65,57,50,51,48,43,92,75,47,30.33,30.23,6,1,10,0.01
2013-6-1,70,58,47,53,49,46,95,75,49,30.24,30.05,7,1,11,0.05
2013-6-2,67,56,53,53,51,49,93,84,55,30.08,30.04,8,1,10,0.05
2013-6-3,70,58,46,56,52,45,97,80,55,30.11,30.06,6,1,9,0.00
2013-6-4,76,62,48,59,53,46,96,74,51,30.12,30.02,8,2,15,0.00
2013-6-5,73,61,49,60,54,47,94,77,58,30.09,30.03,7,1,14,0.00
2013-6-6,75,58,49,60,51,42,97,81,36,30.04,30.01,6,1,11,0.00
2013-6-7,67,59,52,54,48,42,82,69,52,30.15,30.01,4,1,8,0.00
2013-6-8,65,57,50,53,49,47,88,75,62,30.18,30.10,5,1,10,0.00
2013-6-9,64,57,50,51,48,45,92,73,54,30.11,30.03,6,2,14,0.00
2013-6-10,67,56,46,52,48,44,93,74,49,30.04,29.87,6,1,12,0.00
2013-6-11,64,56,50,55,50,47,91,80,58,30.09,29.92,3,0,7,0.07
2013-6-12,69,58,50,53,49,47,94,75,48,30.13,30.09,5,1,9,0.09
2013-6-13,66,57,52,53,50,45,97,81,48,30.21,30.12,7,1,11,0.05
2013-6-14,67,58,53,52,50,49,89,75,57,30.23,30.05,6,1,8,0.00
2013-6-15,72,60,45,58,52,43,97,78,54,30.04,29.90,7,1,10,0.00
2013-6-16,72,60,51,62,55,50,97,84,63,30.08,29.98,7,1,11,0.10
2013-6-17,79,62,50,58,54,49,98,78,37,30.08,29.87,7,1,11,0.11
2013-6-18,73,61,53,57,52,45,97,76,39,29.97,29.86,8,1,12,0.00
2013-6-19,66,58,53,57,53,50,95,84,66,29.99,29.90,6,0,7,0.14
2013-6-20,57,54,52,54,52,50,97,94,79,30.10,29.95,3,0,5,1.24
2013-6-21,69,59,52,56,53,51,97,83,58,30.15,30.09,3,0,7,0.03
2013-6-22,76,64,49,58,54,48,98,73,46,30.12,29.85,5,1,8,0.00
2013-6-23,72,63,57,63,58,55,95,84,66,29.84,29.59,5,0,5,0.04
2013-6-24,67,61,57,61,58,55,97,88,70,29.69,29.57,6,0,11,0.24
2013-6-25,73,61,55,63,57,54,96,88,58,29.85,29.67,4,0,9,0.52
2013-6-26,72,62,54,62,58,53,97,86,65,30.07,29.84,3,0,9,0.02
2013-6-27,72,64,58,65,60,57,96,87,73,30.19,30.04,2,0,6,0.06
2013-6-28,86,71,60,68,63,59,97,79,46,30.19,30.02,7,1,9,0.00
2013-6-29,81,71,62,67,63,60,94,78,56,30.10,29.99,6,1,8,0.00
2013-6-30,85,67,58,69,61,57,97,83,56,30.00,29.85,8,1,10,0.00
2013-7-1,81,71,61,66,62,57,91,73,58,30.00,29.90,7,1,12,0.00
2013-7-2,76,66,58,63,57,51,92,73,47,30.10,30.02,7,2,12,0.00
2013-7-3,72,63,55,58,52,46,84,68,42,30.14,30.04,10,2,13,0.00
2013-7-4,72,62,55,57,53,49,87,73,48,30.11,30.02,5,1,7,0.00
2013-7-5,74,60,52,58,53,50,95,81,51,30.03,29.94,4,0,7,0.00
2013-7-6,75,62,52,61,56,50,96,81,56,29.97,29.86,7,1,12,0.00
2013-7-7,78,66,53,60,56,52,96,74,45,29.93,29.87,6,1,10,0.00
2013-7-8,77,64,56,61,57,54,95,80,53,30.08,29.93,4,1,7,0.00
2013-7-9,77,66,54,64,57,52,96,75,52,30.10,30.00,8,1,12,0.00
2013-7-10,72,62,56,59,54,49,84,74,58,30.05,29.96,6,1,11,0.00
2013-7-11,68,59,54,53,50,47,82,72,49,30.07,29.99,7,1,10,0.00
2013-7-12,68,57,49,55,50,46,92,78,51,30.10,30.01,4,0,6,0.00
2013-7-13,75,58,46,55,50,44,96,77,42,30.20,30.10,9,1,11,0.00
2013-7-14,76,62,47,58,51,44,96,68,38,30.13,29.99,6,1,11,0.00
2013-7-15,78,64,48,58,51,45,95,67,35,30.04,29.89,9,2,15,0.00
2013-7-16,82,68,52,61,56,50,94,68,42,29.90,29.79,7,1,10,0.00
2013-7-17,70,66,60,61,59,57,94,79,66,30.17,29.87,3,0,6,0.01
2013-7-18,74,64,58,61,56,54,89,77,60,30.22,30.12,7,1,11,0.00
2013-7-19,75,62,52,62,57,51,96,83,62,30.16,30.04,7,1,10,0.00
2013-7-20,74,61,54,62,56,52,96,85,60,30.08,29.95,4,0,7,0.00
2013-7-21,77,63,52,63,57,51,97,84,61,29.97,29.89,3,0,6,0.00
2013-7-22,77,64,55,63,58,54,97,83,57,30.05,29.92,6,1,8,0.00
2013-7-23,80,64,52,63,57,51,97,78,51,30.06,29.96,7,1,9,0.00
2013-7-24,78,65,52,61,55,50,96,73,52,30.04,29.99,7,1,13,0.00
2013-7-25,79,64,50,61,54,48,95,72,45,30.10,30.02,6,1,10,0.00
2013-7-26,79,65,50,58,52,47,94,67,36,30.15,30.08,8,2,11,0.00
2013-7-27,75,62,49,58,52,47,94,71,43,30.15,29.98,6,1,10,0.00
2013-7-28,73,57,49,58,52,48,96,86,57,30.01,29.94,4,0,9,0.00
2013-7-29,75,64,57,59,55,53,88,75,54,29.99,29.94,4,0,7,0.00
2013-7-30,76,64,53,60,56,51,96,79,57,30.12,29.99,5,1,9,0.00
2013-7-31,71,61,55,62,58,53,96,89,72,30.11,29.98,4,0,7,0.05
2013-8-1,65,61,57,58,57,55,96,87,80,30.05,30.02,4,0,6,0.00
2013-8-2,61,59,57,59,57,55,97,93,84,30.12,30.05,3,0,8,0.47
2013-8-3,73,64,58,63,59,57,98,86,66,30.12,30.04,6,1,9,0.01
2013-8-4,78,62,56,65,57,54,95,87,60,30.05,29.93,7,0,9,0.00
2013-8-5,80,67,54,62,58,53,97,75,48,30.01,29.92,7,1,9,0.00
2013-8-6,81,66,51,60,55,50,96,71,39,29.99,29.91,6,1,10,0.00
2013-8-7,80,66,52,59,56,51,97,72,44,29.99,29.93,9,1,10,0.00
2013-8-8,76,65,55,62,57,53,96,77,58,30.02,29.94,8,1,13,0.00
2013-8-9,80,66,52,62,56,50,95,74,52,29.95,29.82,6,1,9,0.00
2013-8-10,80,67,61,66,62,57,96,82,58,29.99,29.85,7,1,10,0.08
2013-8-11,72,63,58,61,58,55,96,84,62,30.05,29.98,5,1,9,0.06
2013-8-12,74,65,58,60,57,54,89,77,55,30.06,29.99,9,1,10,0.00
2013-8-13,77,66,56,60,57,54,95,75,50,30.09,29.92,6,1,8,0.00
2013-8-14,83,66,54,64,59,52,97,79,45,29.95,29.89,3,0,5,0.01
2013-8-15,71,66,63,67,64,62,97,93,83,29.98,29.91,2,0,4,0.06
2013-8-16,85,67,62,67,63,53,98,88,40,29.99,29.93,5,0,9,0.01
2013-8-17,76,67,60,63,59,57,92,78,60,30.06,29.99,5,1,10,0.00
2013-8-18,77,66,57,61,57,53,95,76,55,30.11,30.06,7,1,13,0.00
2013-8-19,78,66,59,61,56,50,88,72,52,30.11,30.05,6,1,12,0.00
2013-8-20,74,64,55,59,54,51,90,72,49,30.16,30.06,10,2,13,0.00
2013-8-21,77,64,48,60,54,47,96,72,49,30.09,29.93,6,1,11,0.00
2013-8-22,81,67,52,61,56,50,96,70,45,29.95,29.79,6,1,7,0.00
2013-8-23,74,65,58,61,58,56,93,78,62,29.88,29.81,3,0,9,0.00
2013-8-24,72,63,57,62,58,53,95,83,59,29.91,29.84,5,1,11,0.03
2013-8-25,70,57,50,60,53,48,97,88,64,29.94,29.86,6,0,11,0.01
2013-8-26,76,65,58,62,58,53,95,79,52,29.94,29.84,6,0,9,0.00
2013-8-27,79,67,59,62,59,57,93,78,52,29.94,29.78,8,1,8,0.00
2013-8-28,79,68,59,66,61,58,97,82,57,29.88,29.81,4,0,6,0.14
2013-8-29,74,66,62,66,63,61,97,92,73,30.00,29.84,6,0,12,0.71
2013-8-30,78,67,58,63,59,55,97,78,50,30.14,30.00,9,1,9,0.02
2013-8-31,75,58,50,62,54,49,97,88,60,30.07,29.84,7,1,12,0.00
2013-9-1,82,66,54,64,59,53,97,80,51,29.88,29.79,5,1,8,0.00
2013-9-2,79,66,56,63,59,54,97,78,54,29.94,29.85,5,1,9,0.00
2013-9-3,71,63,58,65,60,57,97,91,75,30.02,29.92,4,0,7,0.05
2013-9-4,68,62,57,63,60,56,98,93,83,30.04,29.99,4,0,9,0.07
2013-9-5,66,60,56,63,59,56,98,94,86,30.04,29.91,7,1,10,0.23
2013-9-6,70,63,60,65,61,59,98,93,79,30.10,29.93,2,0,5,0.96
2013-9-7,71,64,59,64,60,57,97,88,72,30.10,30.01,7,1,9,0.03
2013-9-8,75,64,56,65,59,55,98,86,66,30.10,30.02,5,1,8,0.00
2013-9-9,74,63,56,64,59,55,97,87,68,30.05,29.97,5,1,8,0.00
2013-9-10,75,63,56,66,60,55,97,89,71,29.99,29.88,5,1,8,0.00
2013-9-11,86,69,54,67,61,53,97,79,51,29.93,29.86,4,1,8,0.00
2013-9-12,75,65,56,64,60,55,96,85,66,29.99,29.90,5,1,8,0.00
2013-9-13,65,61,55,62,59,54,97,94,89,29.96,29.86,3,0,3,0.01
2013-9-14,66,62,60,62,60,59,97,92,86,29.87,29.73,4,1,6,0.00
2013-9-15,65,60,56,62,59,56,97,96,91,29.80,29.70,4,1,7,0.25
2013-9-16,64,60,55,60,58,53,96,93,86,29.93,29.79,5,0,7,0.16
2013-9-17,60,57,55,55,54,54,96,92,84,29.93,29.86,3,0,4,0.06
2013-9-18,66,58,52,58,53,49,97,85,55,30.06,29.93,5,0,9,0.10
2013-9-19,79,61,44,55,50,43,97,71,38,30.04,29.75,3,0,5,0.00
2013-9-20,76,56,48,58,50,46,94,80,46,29.75,29.57,3,0,7,0.02
2013-9-21,69,60,55,57,55,51,95,83,57,29.70,29.63,5,0,10,0.00
2013-9-22,60,57,54,55,53,50,94,86,71,29.70,29.56,6,1,11,0.11
2013-9-23,61,55,50,55,52,49,96,89,77,29.95,29.71,6,1,13,0.62
2013-9-24,59,52,48,55,50,47,97,92,77,29.95,29.82,2,0,5,0.29
2013-9-25,56,51,44,51,49,43,96,92,83,30.02,29.85,7,1,9,0.01
2013-9-26,62,49,40,52,46,39,97,90,69,30.12,30.02,5,0,8,0.00
2013-9-27,55,52,44,52,49,43,96,92,87,30.11,29.84,4,0,10,0.10
2013-9-28,59,55,51,58,53,49,96,94,90,29.83,29.33,13,2,16,0.83
2013-9-29,54,52,51,51,50,48,96,91,83,29.55,29.16,9,2,17,0.49
2013-9-30,57,52,49,52,48,46,93,87,80,29.90,29.39,6,1,12,0.01
2013-10-1,57,51,47,50,46,43,95,84,71,30.09,29.89,5,1,10,0.06
2013-10-2,53,50,48,50,48,47,96,91,85,30.16,30.05,3,0,7,0.22
2013-10-3,57,50,45,50,47,44,97,88,69,30.44,30.16,6,0,7,0.02
2013-10-4,65,50,37,53,45,36,97,85,53,30.47,30.34,2,0,5,0.00
2013-10-5,68,53,41,52,47,40,97,82,52,30.36,30.12,6,1,8,0.00
2013-10-6,77,56,41,53,46,40,97,73,31,30.12,29.87,4,0,9,0.00
2013-10-7,57,52,50,52,50,49,96,93,76,30.00,29.86,8,1,10,0.77
2013-10-8,55,49,40,50,47,39,97,91,71,30.07,29.95,6,0,12,0.28
2013-10-9,57,44,33,48,41,32,97,88,66,30.13,29.95,2,0,5,0.00
2013-10-10,57,49,44,50,46,42,97,90,74,30.06,29.93,3,0,6,0.00
2013-10-11,56,49,45,51,47,44,97,94,80,30.13,30.06,2,0,5,0.01
2013-10-12,55,49,42,50,47,41,97,91,76,30.20,30.06,8,1,9,0.06
2013-10-13,54,46,40,48,44,38,97,92,78,30.36,30.20,3,0,4,0.00
2013-10-14,56,44,35,49,42,34,97,91,72,30.42,30.35,3,0,6,0.01
2013-10-15,58,46,35,51,43,34,97,89,71,30.38,30.17,4,0,7,0.00
2013-10-16,52,47,41,49,46,40,97,94,88,30.19,30.14,2,0,4,0.00
2013-10-17,56,49,43,50,47,42,96,91,80,30.26,30.19,4,0,7,0.00
2013-10-18,55,45,39,51,44,38,97,94,84,30.24,30.14,4,0,7,0.01
2013-10-19,49,45,42,47,44,41,97,96,93,30.19,30.13,3,0,5,0.00
2013-10-20,48,46,44,47,45,44,97,96,93,30.19,30.14,2,0,3,0.01
2013-10-21,50,47,44,48,46,44,97,96,94,30.16,30.09,3,0,4,0.00
2013-10-22,50,47,44,49,46,43,98,97,95,30.11,30.02,4,0,4,0.01
2013-10-23,58,47,42,54,46,41,98,95,83,30.04,29.97,3,0,5,0.01
2013-10-24,49,43,41,48,43,40,98,97,96,30.11,30.00,4,0,6,0.01
2013-10-25,50,48,47,49,47,46,98,96,91,30.31,30.11,0,0,2,0.01
2013-10-26,52,49,47,48,46,46,97,92,85,30.33,30.18,3,0,4,0.00
2013-10-27,56,48,41,50,46,40,97,92,76,30.18,29.88,9,1,10,0.21
2013-10-28,59,45,35,48,39,35,98,83,46,29.94,29.86,6,1,11,0.00
2013-10-29,57,41,30,42,36,29,97,84,54,30.02,29.94,3,0,6,0.00
2013-10-30,55,43,32,47,39,31,97,87,67,30.11,30.02,2,0,6,0.03
2013-10-31,52,49,47,51,48,45,97,94,84,30.25,30.08,4,0,9,0.15
2013-11-1,58,52,48,54,50,47,98,92,83,30.25,29.82,3,0,4,0.01
2013-11-2,52,48,42,50,46,41,97,94,85,29.87,29.46,7,1,22,1.13
2013-11-3,49,42,33,46,40,32,97,93,80,30.10,29.86,2,0,7,0.16
2013-11-4,48,38,29,42,35,28,97,89,70,30.19,30.05,4,0,7,0.07
2013-11-5,49,45,41,48,44,39,97,95,91,30.24,30.01,7,0,9,0.13
2013-11-6,51,46,39,49,44,39,98,93,83,30.31,30.02,5,0,12,0.03
2013-11-7,49,47,46,47,46,44,97,94,90,30.01,29.69,6,1,16,0.74
2013-11-8,55,48,42,48,45,41,97,92,74,30.15,29.96,4,0,7,0.03
2013-11-9,50,44,36,46,42,35,97,93,81,30.14,30.06,2,0,4,0.04
2013-11-10,48,46,44,46,44,43,97,96,93,30.14,30.08,3,0,6,0.09
2013-11-11,58,50,40,52,44,39,98,82,57,30.15,29.98,6,1,12,0.01
2013-11-12,56,53,49,54,49,41,97,86,60,30.34,30.01,5,0,8,0.11
2013-11-13,57,52,48,51,49,47,95,88,74,30.42,30.30,2,0,5,0.00
2013-11-14,49,46,42,47,45,41,97,96,93,30.29,30.04,4,0,7,0.15
2013-11-15,46,44,42,44,43,40,97,96,80,30.05,29.32,10,1,16,0.58
2013-11-16,46,42,39,44,40,38,97,92,82,29.74,29.34,16,0,17,0.17
2013-11-17,51,46,38,46,43,37,96,90,84,29.88,29.75,5,1,11,0.01
2013-11-18,50,49,47,49,47,45,97,94,90,29.87,29.54,4,1,9,0.31
2013-11-19,51,43,37,50,36,23,97,78,52,30.05,29.52,12,2,13,0.36
2013-11-20,42,32,26,33,28,25,96,87,60,30.50,30.06,6,0,7,0.00
2013-11-21,41,30,23,34,26,22,96,87,64,30.66,30.50,5,0,6,0.01
2013-11-22,43,31,23,35,28,22,96,88,63,30.65,30.45,4,0,6,0.01
2013-11-23,48,34,26,38,31,25,96,89,67,30.45,30.20,3,0,6,0.00
2013-11-24,49,35,28,41,32,27,97,91,71,30.25,30.16,3,0,4,0.01
2013-11-25,53,38,30,43,35,29,97,89,66,30.31,30.24,2,0,3,0.01
2013-11-26,54,39,29,42,36,28,97,88,60,30.26,30.10,2,0,3,0.01
2013-11-27,53,42,34,45,39,33,96,90,71,30.09,29.94,3,0,5,0.00
2013-11-28,54,39,31,42,36,30,97,88,56,30.17,30.01,2,0,5,0.01
2013-11-29,48,39,36,44,38,34,96,94,85,30.30,30.16,2,0,4,0.00
2013-11-30,50,48,45,48,45,43,96,90,78,30.31,30.07,5,0,9,0.12
2013-12-1,52,48,40,51,47,38,97,95,91,30.06,29.73,8,1,24,0.79
2013-12-2,41,37,34,38,35,33,97,94,83,30.04,29.79,7,0,12,0.10
2013-12-3,38,32,27,34,29,25,97,90,69,30.30,30.04,4,0,6,0.00
2013-12-4,37,29,24,30,26,23,96,90,69,30.34,30.29,1,0,4,0.01
2013-12-5,32,26,20,28,21,13,95,84,56,30.32,30.19,4,0,10,0.01
2013-12-6,33,25,16,20,12,8,91,62,39,30.24,30.15,6,1,13,0.00
2013-12-7,29,18,11,17,11,6,91,75,41,30.43,30.23,4,0,7,0.00
2013-12-8,32,22,12,19,15,10,92,77,53,30.56,30.42,3,0,5,0.00
2013-12-9,30,25,16,27,22,14,92,88,82,30.58,30.48,0,0,1,0.00
2013-12-10,36,32,29,33,30,27,95,91,86,30.49,30.41,1,0,2,0.00
2013-12-11,40,32,27,34,30,26,96,91,75,30.41,30.15,2,0,4,0.00
2013-12-12,44,37,30,41,34,28,96,90,69,30.15,30.03,4,0,8,0.05
2013-12-13,45,44,41,44,43,40,97,97,94,30.40,30.12,2,0,5,0.08
2013-12-14,48,43,40,44,42,39,97,96,87,30.41,30.31,2,0,9,0.00
2013-12-15,48,47,43,47,45,43,97,95,87,30.44,30.31,3,0,6,0.03
2013-12-16,48,39,32,45,38,32,98,96,86,30.48,30.26,2,0,4,0.00
2013-12-17,40,37,32,40,36,31,98,97,96,30.25,30.10,2,0,4,0.01
2013-12-18,43,39,28,41,36,27,98,90,71,30.13,30.01,5,1,11,0.01
2013-12-19,35,29,24,33,27,22,96,93,84,30.34,30.13,1,0,4,0.00
2013-12-20,36,32,29,36,31,28,97,96,95,30.19,29.71,5,0,8,0.70
2013-12-21,39,37,34,39,36,34,98,97,97,30.15,29.82,2,0,2,0.33
2013-12-22,47,43,38,47,43,38,98,98,97,30.28,30.15,2,0,9,0.65
2013-12-23,49,46,40,48,44,39,98,92,77,30.50,30.11,14,1,17,0.30
2013-12-24,46,39,30,42,37,29,97,94,81,30.60,30.50,2,0,4,0.00
2013-12-25,43,33,28,38,32,27,97,94,83,30.52,30.38,3,0,4,0.01
2013-12-26,49,35,32,41,34,31,97,95,71,30.39,30.19,1,0,3,0.00
2013-12-27,42,37,30,42,36,30,97,97,96,30.35,30.09,5,0,9,0.10
2013-12-28,46,41,36,46,40,36,98,97,92,30.51,30.35,2,0,4,0.00
2013-12-29,40,38,36,39,37,35,98,97,97,30.46,30.30,2,0,3,0.01
2013-12-30,42,38,34,41,37,33,98,97,95,30.30,30.11,6,0,11,0.04
2013-12-31,45,43,38,44,42,37,97,96,95,30.36,30.18,2,0,3,0.02
2014-1-1,43,38,31,42,37,30,98,97,95,30.40,30.23,3,0,3,0.01
2014-1-2,50,44,39,45,42,38,98,93,74,30.23,29.88,7,1,14,0.54